createdAt,value
2023-01-19T00:01:40.295Z,12.78
2023-01-19T00:04:08.030Z,12.71
2023-01-19T00:06:35.448Z,12.86
2023-01-19T00:09:03.264Z,12.87
2023-01-19T00:11:30.890Z,12.93
2023-01-19T00:13:59.033Z,12.94
2023-01-19T00:16:26.349Z,12.82
2023-01-19T00:18:54.062Z,12.68
2023-01-19T00:21:22.469Z,12.71
2023-01-19T00:23:52.747Z,12.68
2023-01-19T00:26:22.413Z,12.64
2023-01-19T00:28:50.543Z,12.68
2023-01-19T00:31:20.808Z,12.65
2023-01-19T00:33:49.492Z,12.74
2023-01-19T00:36:16.925Z,12.80
2023-01-19T00:38:44.261Z,12.85
2023-01-19T00:41:11.918Z,12.81
2023-01-19T00:43:39.223Z,12.73
2023-01-19T00:46:06.782Z,12.95
2023-01-19T00:48:34.506Z,13.06
2023-01-19T00:51:01.769Z,12.92
2023-01-19T00:53:32.671Z,12.99
2023-01-19T00:56:00.277Z,12.87
2023-01-19T00:58:27.625Z,13.03
2023-01-19T01:00:57.991Z,13.12
2023-01-19T01:03:28.292Z,13.18
2023-01-19T01:05:55.727Z,13.20
2023-01-19T01:08:23.137Z,13.14
2023-01-19T01:10:51.502Z,13.02
2023-01-19T01:13:20.571Z,13.07
2023-01-19T01:15:53.297Z,13.13
2023-01-19T01:18:21.115Z,13.12
2023-01-19T01:20:48.829Z,13.35
2023-01-19T01:23:16.735Z,13.10
2023-01-19T01:25:46.808Z,13.13
2023-01-19T01:28:14.041Z,13.16
2023-01-19T01:30:43.559Z,13.22
2023-01-19T01:33:11.964Z,13.21
2023-01-19T01:35:39.866Z,13.26
2023-01-19T01:38:08.076Z,13.14
2023-01-19T01:40:35.257Z,13.26
2023-01-19T01:43:02.979Z,13.22
2023-01-19T01:45:35.332Z,13.18
2023-01-19T01:48:10.606Z,13.15
2023-01-19T01:51:03.747Z,13.11
2023-01-19T01:53:34.233Z,13.05
2023-01-19T01:56:06.990Z,13.14
2023-01-19T01:58:35.936Z,13.18
2023-01-19T02:01:22.742Z,13.41
2023-01-19T02:03:50.478Z,13.21
2023-01-19T02:06:18.019Z,13.12
2023-01-19T02:09:10.940Z,13.13
2023-01-19T02:11:57.440Z,13.16
2023-01-19T02:14:24.711Z,13.26
2023-01-19T02:16:52.663Z,13.17
2023-01-19T02:19:30.487Z,13.09
2023-01-19T02:22:50.587Z,13.14
2023-01-19T02:25:20.514Z,13.19
2023-01-19T02:27:50.819Z,12.92
2023-01-19T02:30:19.005Z,12.88
2023-01-19T02:32:46.399Z,12.82
2023-01-19T02:35:15.360Z,12.84
2023-01-19T02:37:44.535Z,12.71
2023-01-19T02:40:13.326Z,12.67
2023-01-19T02:42:46.638Z,12.76
2023-01-19T02:45:15.560Z,12.76
2023-01-19T02:47:52.147Z,12.66
2023-01-19T02:50:37.690Z,12.62
2023-01-19T02:53:11.838Z,12.48
2023-01-19T02:55:40.549Z,12.41
2023-01-19T02:58:11.993Z,12.48
2023-01-19T03:01:00.712Z,12.56
2023-01-19T03:03:33.220Z,12.38
2023-01-19T03:06:18.591Z,12.45
2023-01-19T03:09:15.769Z,12.39
2023-01-19T03:11:50.499Z,12.17
2023-01-19T03:14:23.718Z,12.11
2023-01-19T03:16:57.073Z,12.16
2023-01-19T03:19:32.140Z,11.94
2023-01-19T03:22:03.974Z,11.49
2023-01-19T03:24:37.107Z,11.63
2023-01-19T03:27:14.504Z,11.54
2023-01-19T03:29:47.576Z,11.56
2023-01-19T03:32:18.062Z,11.44
2023-01-19T03:34:49.554Z,11.51
2023-01-19T03:37:19.635Z,11.01
2023-01-19T03:39:47.437Z,11.05
2023-01-19T03:42:17.303Z,10.99
2023-01-19T03:44:46.604Z,10.98
2023-01-19T03:47:15.229Z,10.83
2023-01-19T03:49:45.882Z,10.91
2023-01-19T03:52:14.399Z,10.94
2023-01-19T03:54:42.013Z,10.92
2023-01-19T03:57:10.297Z,10.74
2023-01-19T03:59:37.920Z,10.69
2023-01-19T04:02:05.303Z,10.65
2023-01-19T04:04:33.103Z,10.37
2023-01-19T04:07:01.491Z,10.32
2023-01-19T04:09:28.879Z,10.13
2023-01-19T04:11:57.435Z,10.08
2023-01-19T04:14:24.828Z,10.15
2023-01-19T04:16:52.331Z,10.03
2023-01-19T04:19:19.889Z,9.99
2023-01-19T04:21:50.981Z,10.03
2023-01-19T04:24:18.889Z,10.04
2023-01-19T04:26:46.624Z,10.10
2023-01-19T04:29:14.499Z,10.12
2023-01-19T04:31:42.045Z,9.41
2023-01-19T04:34:10.466Z,9.56
2023-01-19T04:36:37.798Z,9.71
2023-01-19T04:39:05.316Z,9.54
2023-01-19T04:41:33.095Z,9.42
2023-01-19T04:44:00.721Z,9.76
2023-01-19T04:46:28.218Z,9.48
2023-01-19T04:48:55.896Z,9.19
2023-01-19T04:51:23.286Z,9.24
2023-01-19T04:53:50.560Z,9.14
2023-01-19T04:56:18.227Z,9.18
2023-01-19T04:58:45.543Z,9.03
2023-01-19T05:01:13.173Z,8.94
2023-01-19T05:03:40.942Z,8.84
2023-01-19T05:06:10.897Z,8.31
2023-01-19T05:08:38.495Z,8.53
2023-01-19T05:11:06.208Z,8.40
2023-01-19T05:13:33.712Z,8.33
2023-01-19T05:16:01.745Z,8.30
2023-01-19T05:18:30.073Z,8.24
2023-01-19T05:20:57.468Z,8.25
2023-01-19T05:23:24.839Z,8.11
2023-01-19T05:25:52.635Z,7.82
2023-01-19T05:28:21.357Z,7.78
2023-01-19T05:30:52.102Z,7.43
2023-01-19T05:33:20.146Z,7.56
2023-01-19T05:35:50.620Z,7.71
2023-01-19T05:38:23.340Z,7.39
2023-01-19T05:40:58.309Z,7.43
2023-01-19T05:43:25.946Z,7.16
2023-01-19T05:45:53.360Z,7.10
2023-01-19T05:48:21.083Z,7.15
2023-01-19T05:50:49.775Z,7.06
2023-01-19T05:53:17.353Z,6.80
2023-01-19T05:55:45.124Z,6.77
2023-01-19T05:58:12.464Z,6.85
2023-01-19T06:00:39.803Z,6.94
2023-01-19T06:03:07.541Z,6.85
2023-01-19T06:05:35.667Z,6.76
2023-01-19T06:08:03.183Z,6.71
2023-01-19T06:10:31.059Z,7.06
2023-01-19T06:12:59.101Z,6.96
2023-01-19T06:15:26.723Z,7.03
2023-01-19T06:17:54.379Z,6.54
2023-01-19T06:20:21.882Z,6.65
2023-01-19T06:22:49.271Z,6.90
2023-01-19T06:25:17.056Z,6.91
2023-01-19T06:27:45.569Z,6.44
2023-01-19T06:30:13.868Z,6.26
2023-01-19T06:32:41.674Z,6.29
2023-01-19T06:35:09.465Z,6.62
2023-01-19T06:37:36.920Z,6.57
2023-01-19T06:40:05.323Z,6.35
2023-01-19T06:42:32.854Z,6.28
2023-01-19T06:45:00.308Z,6.52
2023-01-19T06:47:28.110Z,6.61
2023-01-19T06:49:55.390Z,6.92
2023-01-19T06:52:22.835Z,7.03
2023-01-19T06:54:50.482Z,7.16
2023-01-19T06:57:17.920Z,7.31
2023-01-19T06:59:45.323Z,7.50
2023-01-19T07:02:26.357Z,7.75
2023-01-19T07:04:56.569Z,7.78
2023-01-19T07:07:24.437Z,8.23
2023-01-19T07:09:53.984Z,8.51
2023-01-19T07:12:22.762Z,8.84
2023-01-19T07:14:50.499Z,9.47
2023-01-19T07:17:17.836Z,9.92
2023-01-19T07:19:46.036Z,10.43
2023-01-19T07:22:13.840Z,10.51
2023-01-19T07:24:41.603Z,10.57
2023-01-19T07:27:09.010Z,10.52
2023-01-19T07:29:36.635Z,10.76
2023-01-19T07:32:04.570Z,11.12
2023-01-19T07:34:32.061Z,11.63
2023-01-19T07:36:59.838Z,12.53
2023-01-19T07:39:27.234Z,12.83
2023-01-19T07:41:54.612Z,13.31
2023-01-19T07:44:23.776Z,13.84
2023-01-19T07:46:51.402Z,14.01
2023-01-19T07:49:18.844Z,14.35
2023-01-19T07:51:47.021Z,14.59
2023-01-19T07:54:14.337Z,14.74
2023-01-19T07:56:41.647Z,14.98
2023-01-19T07:59:11.012Z,14.91
2023-01-19T08:01:38.429Z,15.12
2023-01-19T08:04:06.566Z,15.30
2023-01-19T08:06:37.233Z,15.34
2023-01-19T08:09:08.653Z,15.53
2023-01-19T08:11:36.857Z,15.80
2023-01-19T08:14:05.770Z,15.98
2023-01-19T08:16:35.588Z,16.04
2023-01-19T08:19:03.943Z,16.16
2023-01-19T08:21:33.479Z,16.16
2023-01-19T08:24:00.896Z,16.39
2023-01-19T08:26:34.657Z,16.46
2023-01-19T08:29:05.507Z,16.43
2023-01-19T08:31:33.349Z,16.40
2023-01-19T08:34:00.939Z,16.44
2023-01-19T08:36:29.082Z,16.62
2023-01-19T08:38:56.827Z,16.48
2023-01-19T08:41:24.250Z,16.64
2023-01-19T08:43:51.650Z,16.90
2023-01-19T08:46:22.092Z,16.87
2023-01-19T08:48:50.588Z,16.94
2023-01-19T08:51:19.071Z,16.83
2023-01-19T08:53:47.324Z,17.06
2023-01-19T08:56:15.358Z,17.29
2023-01-19T08:58:45.681Z,17.43
2023-01-19T09:01:17.712Z,17.38
2023-01-19T09:03:45.077Z,17.11
2023-01-19T09:06:16.582Z,17.15
2023-01-19T09:08:44.347Z,17.32
2023-01-19T09:11:13.711Z,17.33
2023-01-19T09:13:41.849Z,17.28
2023-01-19T09:16:11.638Z,16.99
2023-01-19T09:18:39.621Z,17.28
2023-01-19T09:21:08.463Z,17.48
2023-01-19T09:23:36.840Z,17.57
2023-01-19T09:26:06.519Z,17.38
2023-01-19T09:28:34.419Z,17.36
2023-01-19T09:31:06.869Z,17.60
2023-01-19T09:33:35.880Z,17.79
2023-01-19T09:36:03.490Z,17.89
2023-01-19T09:38:33.050Z,17.85
2023-01-19T09:41:01.594Z,17.67
2023-01-19T09:43:41.386Z,17.80
2023-01-19T09:46:35.784Z,17.36
2023-01-19T09:49:12.930Z,17.42
2023-01-19T09:51:46.335Z,17.71
2023-01-19T09:54:19.539Z,18.16
2023-01-19T09:56:52.115Z,18.02
2023-01-19T09:59:29.029Z,17.85
2023-01-19T10:02:31.915Z,17.87
2023-01-19T10:05:23.277Z,17.50
2023-01-19T10:08:09.793Z,17.20
2023-01-19T10:10:40.671Z,16.89
2023-01-19T10:13:47.197Z,16.77
2023-01-19T10:16:40.033Z,16.56
2023-01-19T10:19:26.226Z,17.01
2023-01-19T10:21:58.136Z,17.26
2023-01-19T10:24:37.620Z,17.64
2023-01-19T10:27:13.771Z,17.63
2023-01-19T10:29:41.371Z,17.30
2023-01-19T10:32:26.252Z,16.97
2023-01-19T10:34:55.000Z,17.01
2023-01-19T10:37:30.211Z,17.05
2023-01-19T10:40:09.903Z,17.45
2023-01-19T10:42:40.578Z,17.52
2023-01-19T10:45:18.971Z,17.48
2023-01-19T10:47:47.416Z,17.89
2023-01-19T10:50:31.329Z,18.03
2023-01-19T10:53:01.715Z,17.92
2023-01-19T10:55:40.675Z,17.39
2023-01-19T10:58:31.185Z,17.52
2023-01-19T11:01:23.339Z,17.30
2023-01-19T11:03:53.582Z,17.06
2023-01-19T11:06:22.504Z,16.35
2023-01-19T11:08:52.012Z,16.33
2023-01-19T11:11:21.775Z,16.42
2023-01-19T11:14:07.393Z,16.12
2023-01-19T11:16:38.088Z,16.23
2023-01-19T11:19:07.723Z,16.16
2023-01-19T11:21:35.464Z,16.18
2023-01-19T11:24:09.190Z,16.19
2023-01-19T11:26:49.430Z,16.21
2023-01-19T11:29:23.126Z,16.31
2023-01-19T11:31:52.554Z,16.52
2023-01-19T11:34:22.813Z,16.51
2023-01-19T11:37:06.027Z,16.41
2023-01-19T11:39:47.922Z,16.53
2023-01-19T11:42:18.080Z,16.73
2023-01-19T11:45:06.733Z,16.85
2023-01-19T11:47:41.644Z,16.70
2023-01-19T11:50:15.669Z,16.40
2023-01-19T11:52:46.188Z,16.35
2023-01-19T11:55:32.189Z,16.45
2023-01-19T11:58:00.057Z,16.19
2023-01-19T12:00:36.315Z,16.05
2023-01-19T12:03:07.015Z,15.70
2023-01-19T12:05:37.468Z,15.73
2023-01-19T12:08:11.636Z,15.64
2023-01-19T12:10:44.995Z,15.77
2023-01-19T12:13:23.903Z,15.92
2023-01-19T12:15:58.096Z,15.92
2023-01-19T12:18:30.594Z,15.69
2023-01-19T12:20:59.052Z,15.69
2023-01-19T12:24:11.683Z,15.66
2023-01-19T12:26:51.517Z,15.64
2023-01-19T12:29:24.966Z,15.43
2023-01-19T12:32:14.194Z,15.26
2023-01-19T12:34:50.203Z,15.20
2023-01-19T12:37:26.425Z,15.23
2023-01-19T12:39:56.541Z,15.09
2023-01-19T12:42:24.983Z,15.00
2023-01-19T12:45:07.073Z,15.02
2023-01-19T12:47:35.484Z,14.94
2023-01-19T12:50:17.193Z,15.01
2023-01-19T12:52:51.835Z,14.77
2023-01-19T12:55:34.802Z,14.65
2023-01-19T12:58:18.068Z,14.66
2023-01-19T13:00:48.511Z,14.66
2023-01-19T13:03:19.412Z,14.69
2023-01-19T13:05:55.504Z,14.72
2023-01-19T13:08:30.647Z,14.77
2023-01-19T13:11:05.185Z,14.71
2023-01-19T13:13:40.271Z,14.66
2023-01-19T13:16:20.087Z,14.62
2023-01-19T13:19:13.572Z,14.59
2023-01-19T13:21:47.185Z,14.45
2023-01-19T13:24:17.786Z,14.56
2023-01-19T13:26:54.951Z,14.57
2023-01-19T13:29:36.675Z,14.44
2023-01-19T13:32:17.777Z,14.44
2023-01-19T13:34:51.884Z,14.46
2023-01-19T13:37:23.342Z,14.48
2023-01-19T13:39:53.897Z,14.35
2023-01-19T13:42:28.230Z,14.25
2023-01-19T13:44:59.962Z,14.28
2023-01-19T13:47:49.725Z,14.39
2023-01-19T13:50:30.689Z,14.25
2023-01-19T13:52:59.496Z,14.22
2023-01-19T13:55:28.189Z,14.12
2023-01-19T13:57:56.331Z,14.12
2023-01-19T14:00:33.590Z,14.10
2023-01-19T14:03:02.631Z,14.02
2023-01-19T14:05:38.272Z,14.02
2023-01-19T14:08:09.155Z,14.06
2023-01-19T14:10:39.088Z,13.89
2023-01-19T14:13:15.045Z,13.97
2023-01-19T14:15:43.410Z,13.93
2023-01-19T14:18:19.755Z,13.84
2023-01-19T14:21:03.860Z,13.85
2023-01-19T14:23:38.115Z,13.81
2023-01-19T14:26:06.341Z,13.92
2023-01-19T14:28:44.348Z,13.73
2023-01-19T14:31:21.162Z,13.80
2023-01-19T14:33:53.437Z,13.64
2023-01-19T14:36:33.900Z,13.61
2023-01-19T14:39:02.552Z,13.35
2023-01-19T14:41:30.312Z,13.26
2023-01-19T14:43:59.834Z,13.19
2023-01-19T14:46:28.299Z,13.18
2023-01-19T14:49:05.893Z,13.14
2023-01-19T14:51:33.794Z,13.21
2023-01-19T14:54:02.567Z,13.22
2023-01-19T14:56:33.071Z,13.17
2023-01-19T14:59:02.499Z,13.20
2023-01-19T15:01:31.358Z,13.26
2023-01-19T15:03:58.952Z,13.18
2023-01-19T15:06:27.052Z,13.18
2023-01-19T15:08:54.872Z,13.11
2023-01-19T15:11:34.300Z,12.87
2023-01-19T15:14:02.688Z,12.91
2023-01-19T15:16:33.234Z,12.86
2023-01-19T15:19:00.916Z,12.84
2023-01-19T15:21:29.059Z,12.77
2023-01-19T15:23:58.387Z,12.63
2023-01-19T15:26:27.359Z,12.52
2023-01-19T15:28:56.494Z,12.49
2023-01-19T15:31:26.221Z,12.45
2023-01-19T15:33:53.913Z,12.51
2023-01-19T15:36:24.427Z,12.38
2023-01-19T15:38:52.022Z,12.29
2023-01-19T15:41:25.358Z,12.13
2023-01-19T15:43:53.618Z,12.21
2023-01-19T15:46:22.315Z,11.91
2023-01-19T15:48:50.776Z,11.80
2023-01-19T15:51:21.727Z,11.86
2023-01-19T15:53:49.824Z,11.85
2023-01-19T15:56:23.662Z,11.83
2023-01-19T15:58:52.184Z,11.80
2023-01-19T16:01:24.972Z,11.91
2023-01-19T16:03:52.956Z,12.01
2023-01-19T16:06:20.545Z,11.97
2023-01-19T16:08:47.897Z,12.05
2023-01-19T16:11:18.581Z,12.01
2023-01-19T16:13:46.563Z,12.05
2023-01-19T16:16:18.999Z,12.21
2023-01-19T16:18:46.873Z,12.36
2023-01-19T16:21:14.411Z,12.56
2023-01-19T16:23:42.133Z,12.30
2023-01-19T16:26:34.611Z,12.34
2023-01-19T16:29:10.017Z,12.34
2023-01-19T16:31:42.696Z,12.38
2023-01-19T16:34:10.443Z,12.24
2023-01-19T16:36:42.848Z,12.15
2023-01-19T16:39:14.820Z,12.07
2023-01-19T16:41:43.929Z,12.11
2023-01-19T16:44:15.904Z,11.97
2023-01-19T16:46:46.005Z,11.97
2023-01-19T16:49:15.327Z,11.94
2023-01-19T16:51:43.644Z,11.90
2023-01-19T16:54:16.811Z,11.97
2023-01-19T16:56:44.441Z,12.07
2023-01-19T16:59:14.171Z,12.00
2023-01-19T17:01:42.472Z,11.59
2023-01-19T17:04:09.953Z,11.55
2023-01-19T17:06:37.924Z,11.53
2023-01-19T17:09:06.522Z,11.60
2023-01-19T17:11:35.134Z,11.61
2023-01-19T17:14:06.333Z,11.61
2023-01-19T17:16:35.948Z,11.69
2023-01-19T17:19:06.504Z,11.47
2023-01-19T17:21:34.805Z,11.45
2023-01-19T17:24:02.277Z,10.67
2023-01-19T17:26:31.306Z,10.82
2023-01-19T17:29:03.780Z,10.94
2023-01-19T17:31:32.471Z,10.91
2023-01-19T17:34:00.368Z,10.89
2023-01-19T17:36:29.548Z,11.29
2023-01-19T17:39:00.283Z,11.27
2023-01-19T17:41:32.815Z,11.38
2023-01-19T17:44:01.686Z,11.44
2023-01-19T17:46:29.917Z,11.44
2023-01-19T17:48:59.500Z,11.34
2023-01-19T17:51:28.764Z,11.51
2023-01-19T17:53:57.755Z,11.51
2023-01-19T17:56:29.972Z,11.40
2023-01-19T17:58:58.756Z,11.34
2023-01-19T18:01:31.944Z,11.16
2023-01-19T18:04:00.849Z,11.33
2023-01-19T18:06:28.340Z,11.32
2023-01-19T18:08:57.183Z,11.33
2023-01-19T18:11:25.677Z,11.56
2023-01-19T18:13:53.455Z,11.67
2023-01-19T18:16:23.976Z,11.69
2023-01-19T18:18:53.880Z,11.55
2023-01-19T18:21:22.495Z,11.58
2023-01-19T18:23:51.433Z,11.42
2023-01-19T18:26:21.304Z,11.53
2023-01-19T18:28:51.643Z,11.49
2023-01-19T18:31:19.586Z,11.54
2023-01-19T18:33:50.102Z,11.17
2023-01-19T18:36:18.487Z,11.23
2023-01-19T18:38:46.959Z,11.04
2023-01-19T18:41:16.479Z,10.87
2023-01-19T18:43:44.158Z,11.00
2023-01-19T18:46:11.977Z,10.92
2023-01-19T18:48:39.853Z,11.08
2023-01-19T18:51:08.959Z,11.05
2023-01-19T18:53:37.341Z,11.19
2023-01-19T18:56:05.943Z,11.09
2023-01-19T18:58:36.587Z,10.96
2023-01-19T19:01:04.971Z,10.92
2023-01-19T19:03:32.554Z,11.25
2023-01-19T19:06:04.012Z,10.95
2023-01-19T19:08:33.125Z,10.95
2023-01-19T19:11:00.533Z,11.18
2023-01-19T19:13:27.956Z,10.86
2023-01-19T19:16:03.309Z,10.70
2023-01-19T19:18:31.217Z,10.65
2023-01-19T19:20:58.985Z,10.58
2023-01-19T19:23:26.513Z,10.66
2023-01-19T19:25:53.997Z,10.72
2023-01-19T19:28:22.040Z,10.89
2023-01-19T19:30:52.704Z,10.82
2023-01-19T19:33:20.065Z,10.59
2023-01-19T19:35:48.264Z,10.41
2023-01-19T19:38:15.694Z,10.59
2023-01-19T19:40:43.266Z,10.60
2023-01-19T19:43:10.933Z,10.42
2023-01-19T19:45:38.864Z,10.30
2023-01-19T19:48:06.362Z,10.32
2023-01-19T19:50:37.199Z,10.41
2023-01-19T19:53:04.513Z,10.44
2023-01-19T19:55:31.927Z,10.30
2023-01-19T19:57:59.622Z,10.33
2023-01-19T20:00:26.926Z,10.21
2023-01-19T20:02:55.375Z,10.18
2023-01-19T20:05:22.743Z,10.07
2023-01-19T20:07:50.085Z,9.98
2023-01-19T20:10:18.209Z,9.99
2023-01-19T20:12:45.843Z,9.91
2023-01-19T20:15:13.206Z,10.00
2023-01-19T20:17:41.063Z,9.92
2023-01-19T20:20:09.258Z,10.22
2023-01-19T20:22:36.558Z,10.23
2023-01-19T20:25:04.567Z,9.99
2023-01-19T20:27:32.063Z,10.03
2023-01-19T20:30:00.521Z,10.03
2023-01-19T20:32:28.255Z,9.91
2023-01-19T20:34:55.602Z,9.80
2023-01-19T20:37:23.031Z,9.82
2023-01-19T20:39:50.745Z,9.70
2023-01-19T20:42:18.342Z,9.63
2023-01-19T20:44:45.925Z,9.81
2023-01-19T20:47:13.634Z,9.67
2023-01-19T20:49:41.335Z,9.57
2023-01-19T20:52:08.937Z,9.93
2023-01-19T20:54:36.722Z,9.60
2023-01-19T20:57:04.119Z,9.19
2023-01-19T20:59:34.267Z,9.12
2023-01-19T21:02:02.205Z,9.17
2023-01-19T21:04:29.643Z,9.32
2023-01-19T21:06:57.035Z,9.36
2023-01-19T21:09:24.795Z,9.33
2023-01-19T21:11:52.224Z,8.91
2023-01-19T21:14:19.540Z,8.89
2023-01-19T21:16:47.379Z,8.79
2023-01-19T21:19:14.884Z,8.86
2023-01-19T21:21:42.297Z,8.93
2023-01-19T21:24:11.007Z,9.22
2023-01-19T21:26:38.623Z,9.12
2023-01-19T21:29:06.012Z,9.00
2023-01-19T21:31:33.752Z,9.08
2023-01-19T21:34:01.187Z,9.24
2023-01-19T21:36:28.667Z,9.27
2023-01-19T21:39:00.786Z,9.37
2023-01-19T21:41:30.254Z,9.48
2023-01-19T21:44:00.154Z,9.29
2023-01-19T21:46:29.705Z,9.08
2023-01-19T21:49:01.837Z,9.09
2023-01-19T21:51:33.713Z,9.16
2023-01-19T21:54:02.834Z,9.24
2023-01-19T21:56:31.304Z,9.39
2023-01-19T21:59:03.067Z,9.07
2023-01-19T22:01:34.858Z,9.03
2023-01-19T22:04:02.840Z,9.21
2023-01-19T22:06:30.272Z,9.20
2023-01-19T22:08:58.502Z,9.14
2023-01-19T22:11:26.753Z,8.84
2023-01-19T22:13:54.943Z,9.11
2023-01-19T22:16:24.121Z,9.11
2023-01-19T22:18:54.457Z,8.85
2023-01-19T22:21:24.383Z,9.03
2023-01-19T22:23:54.340Z,9.18
2023-01-19T22:26:22.211Z,9.07
2023-01-19T22:28:55.069Z,9.00
2023-01-19T22:31:24.272Z,8.92
2023-01-19T22:33:52.380Z,9.13
2023-01-19T22:36:22.121Z,8.87
2023-01-19T22:38:55.116Z,8.84
2023-01-19T22:41:31.500Z,8.98
2023-01-19T22:44:01.543Z,8.98
2023-01-19T22:46:31.871Z,8.93
2023-01-19T22:49:00.396Z,9.07
2023-01-19T22:51:30.293Z,9.10
2023-01-19T22:53:58.819Z,9.23
2023-01-19T22:56:28.661Z,9.36
2023-01-19T22:58:56.466Z,9.10
2023-01-19T23:01:33.853Z,9.11
2023-01-19T23:04:02.697Z,9.15
2023-01-19T23:06:33.066Z,8.87
2023-01-19T23:09:02.682Z,8.79
2023-01-19T23:11:35.953Z,8.77
2023-01-19T23:14:04.656Z,8.60
2023-01-19T23:16:32.214Z,8.60
2023-01-19T23:18:59.955Z,8.62
2023-01-19T23:21:29.590Z,8.42
2023-01-19T23:24:02.260Z,8.37
2023-01-19T23:26:30.957Z,8.48
2023-01-19T23:29:00.875Z,8.58
2023-01-19T23:31:30.657Z,8.80
2023-01-19T23:34:02.091Z,8.69
2023-01-19T23:36:32.250Z,8.50
2023-01-19T23:39:03.124Z,8.41
2023-01-19T23:41:33.360Z,8.43
2023-01-19T23:44:01.007Z,8.22
2023-01-19T23:46:28.774Z,8.20
2023-01-19T23:48:56.570Z,8.36
2023-01-19T23:51:27.723Z,8.54
2023-01-19T23:53:55.181Z,8.19
2023-01-19T23:56:24.381Z,8.09
2023-01-19T23:58:57.764Z,7.78
